Meath Environmental Platform

Observations

Time Sensor AQI SAQ Temp °C Hum % Pres Pa CO μg/m³ H₂S μg/m³ NO μg/m³ NO₂ μg/m³ O₃ μg/m³ SO₂ μg/m³ CO₂e PPM VOC PPM PM1 μg/m³ PM2.5 μg/m³ PM4 μg/m³ PM10 μg/m³ TPS µm
Thursday 13 August 2026
00:08 Trim Market St 3 23.3 56 57,145 0 0 0.99 15.53 61.22 0 2.85 5.25 6.82
00:07 Trim Market St 3 23.3 56 57,100 0 0 0.99 17.25 63.9 0 1.43 4.23 5.39
00:06 Trim Market St 3 23.4 56 57,055 0 0 0.98 17.15 65.63 0 2.14 5.25 8.24
00:04 Trim Market St 3 23.4 56 57,005 0 0 0.98 14.88 61.68 0 2.85 5.25 7.53
00:00 Trim Market St 3 23.5 55 56,992 0 0 0.97 17.98 64.59 0 1.43 3.74 4.67
Wednesday 12 August 2026
23:57 Trim Market St 3 23.5 55 56,741 0 0 1 17.14 63.68 0 2.14 4.78 6.81
23:49 Trim Market St 3 23.7 54 56,382 0.36 0 0.97 18.51 57.65 0 2.85 5.31 7.53
23:47 Trim Market St 3 23.8 54 56,371 0.65 0 1 19.46 64.06 0 3.56 6.84 8.97
23:45 Trim Market St 3 23.8 54 56,393 0 0 0.99 17.19 64.33 0 1.43 4.31 6.09
23:44 Trim Market St 3 23.9 54 56,374 0 0 0.98 16.43 63.66 0 2.85 5.33 6.81
23:43 Trim Market St 3 23.9 54 56,372 0 0 0.99 18.58 62.11 0 1.43 3.8 4.64
23:42 Trim Market St 3 23.9 54 56,374 0 0 0.99 14.9 58.35 0 2.14 4.82 6.09
23:41 Trim Market St 3 23.9 54 56,369 0 0 1.01 21.75 65.21 0 2.14 5.33 6.81
23:39 Trim Market St 3 24 54 56,272 0 0 1.02 20.36 65.31 0 1.43 4.32 6.81
23:38 Trim Market St 3 24 54 56,231 0 0 0.99 17.02 65.17 0 1.43 3.82 4.64
23:37 Trim Market St 3 24 54 56,151 0 0 0.98 14.72 69.73 0 2.14 4.84 7.53
23:35 Trim Market St 3 24 54 56,122 0.17 0 0.98 15.31 68.5 0 2.85 4.85 6.08
23:34 Trim Market St 3 24.1 54 56,115 0.21 0 0.94 15.21 68.84 0 1.43 4.85 6.08
23:29 Trim Market St 3 24.1 53 56,086 0 0 0.97 17.48 65.07 0 2.85 5.88 7.53
23:27 Trim Market St 3 24.1 53 56,034 0 0 0.95 14.67 67.66 0 1.43 4.36 7.53